Resende, Brazil
Current Conditions -  °F | °C
As of 10:00 AM on Sunday 23 Nov 2014 (Local Time) from SBGW Reporting Station
Light Rain Light Rain  
Wind Chill: 72°   Ceiling: 500
Heat Index: 72°   Visibility: 1.8mi
Dew Point: 68°   Wind: 5mph
Humidity: 88%   Direction: 270°W
Pressure: 30"   Gusts: NA
Location:  22.46°S, 44.45°W
Report Text: SBGW 231200Z 27004KT 240V300 3000 -RA BR BKN005 BKN020 OVC080 22/20 Q1016
Loading
Personal Weather Stations






























Interactive Weather Map New forecast layout! Learn more

10-Day Weather Forecast

Advertisements
Track Severe Weather on mobile